Time;durP1;ratioP1;P1;durP2;ratioP2;P2;SDS_P1;SDS_P2;PMS_P1;PMS_P2;Temp;Humidity;BMP_temperature;BMP_pressure;BME280_temperature;BME280_humidity;BME280_pressure;Samples;Min_cycle;Max_cycle;Signal;HPM_P1;HPM_P2
2021/10/11 00:01:30;;;;;;;;;;;;;;;12.07;47.21;102027.03;4974721;28;99395;-79
2021/10/11 00:03:57;;;;;;;;;;;;;;;12.06;46.98;102019.97;4974227;28;99231;-79
2021/10/11 00:06:25;;;;;;;;;;;;;;;12.11;46.48;102026.03;4974920;28;96683;-78
2021/10/11 00:08:51;;;;;;;;;;;;;;;12.08;46.66;102022.59;4975632;28;96894;-80
2021/10/11 00:11:17;;;;;;;;;;;;;;;12.17;46.62;102019.72;4974104;28;98905;-80
2021/10/11 00:13:44;;;;;;;;;;;;;;;11.96;47.26;102023.72;4973890;28;99468;-79
2021/10/11 00:16:10;;;;;;;;;;;;;;;11.73;47.76;102015.34;4975689;28;96770;-79
2021/10/11 00:18:36;;;;;;;;;;;;;;;12.00;47.33;102028.06;4976302;28;96844;-78
2021/10/11 00:21:03;;;;;;;;;;;;;;;11.94;47.24;102020.25;4978899;28;99049;-77
2021/10/11 00:23:30;;;;;;;;;;;;;;;11.96;47.48;102018.41;4976372;28;101843;-79
2021/10/11 00:25:57;;;;;;;;;;;;;;;12.02;47.44;102015.63;4975106;28;96848;-79
2021/10/11 00:28:23;;;;;;;;;;;;;;;11.73;48.09;102010.03;4973991;28;97008;-79
2021/10/11 00:30:50;;;;;;;;;;;;;;;11.36;49.60;102010.75;4973439;28;98989;-80
2021/10/11 00:33:16;;;;;;;;;;;;;;;11.16;50.28;102015.53;4975266;28;99262;-79
2021/10/11 00:35:42;;;;;;;;;;;;;;;11.10;51.08;102013.00;4973652;28;96832;-80
2021/10/11 00:38:08;;;;;;;;;;;;;;;11.03;50.95;102006.06;4975197;28;96749;-80
2021/10/11 00:40:36;;;;;;;;;;;;;;;11.19;50.29;102010.19;4973228;28;100749;-79
2021/10/11 00:43:02;;;;;;;;;;;;;;;11.53;49.54;102011.31;4974424;28;98822;-78
2021/10/11 00:45:29;;;;;;;;;;;;;;;11.51;49.58;102013.09;4976745;28;96782;-78
2021/10/11 00:47:55;;;;;;;;;;;;;;;11.52;49.32;102009.56;4978087;28;97642;-78
2021/10/11 00:50:21;;;;;;;;;;;;;;;11.26;50.18;102001.25;4974966;28;98881;-79
2021/10/11 00:52:48;;;;;;;;;;;;;;;11.38;49.91;101998.38;4977583;28;102245;-78
2021/10/11 00:55:15;;;;;;;;;;;;;;;11.39;49.67;101994.81;4976606;28;96841;-78
2021/10/11 00:57:42;;;;;;;;;;;;;;;11.54;49.41;101991.88;4978261;28;96858;-79
2021/10/11 01:00:09;;;;;;;;;;;;;;;11.57;49.01;101983.88;4976018;28;101105;-79
2021/10/11 01:02:35;;;;;;;;;;;;;;;11.71;48.82;101980.94;4976457;28;98807;-77
2021/10/11 01:05:02;;;;;;;;;;;;;;;11.60;48.99;101980.31;4978665;28;96645;-79
2021/10/11 01:07:28;;;;;;;;;;;;;;;11.63;49.06;101976.69;4976843;28;96874;-79
2021/10/11 01:09:54;;;;;;;;;;;;;;;11.56;49.10;101971.53;4976589;28;99417;-79
2021/10/11 01:12:20;;;;;;;;;;;;;;;11.50;49.50;101958.41;4977556;28;99104;-77
2021/10/11 01:14:48;;;;;;;;;;;;;;;11.77;48.23;101958.78;4978927;28;96796;-79
2021/10/11 01:17:15;;;;;;;;;;;;;;;11.66;48.43;101952.81;4977694;28;96990;-78
2021/10/11 01:19:41;;;;;;;;;;;;;;;11.65;48.13;101959.00;4979749;28;98920;-78
2021/10/11 01:22:09;;;;;;;;;;;;;;;11.55;48.29;101956.53;4977477;28;99605;-78
2021/10/11 01:24:35;;;;;;;;;;;;;;;11.45;48.89;101952.34;4979164;28;97051;-80
2021/10/11 01:27:01;;;;;;;;;;;;;;;11.48;48.89;101941.72;4980129;28;96766;-79
2021/10/11 01:29:28;;;;;;;;;;;;;;;11.72;48.38;101939.44;4978038;28;99394;-78
2021/10/11 01:31:54;;;;;;;;;;;;;;;11.83;47.94;101933.03;4949149;28;97466;-79
2021/10/11 01:34:20;;;;;;;;;;;;;;;11.77;47.79;101919.06;4979329;28;96857;-79
2021/10/11 01:36:46;;;;;;;;;;;;;;;11.82;47.96;101910.09;4976989;28;97008;-78
2021/10/11 01:39:14;;;;;;;;;;;;;;;11.76;47.82;101904.94;4977373;28;99080;-79
2021/10/11 01:41:40;;;;;;;;;;;;;;;11.70;48.24;101897.13;4974305;28;98210;-79
2021/10/11 01:44:07;;;;;;;;;;;;;;;11.69;48.19;101899.78;4976957;28;97342;-79
2021/10/11 01:46:33;;;;;;;;;;;;;;;11.58;48.46;101898.25;4976707;28;96895;-79
2021/10/11 01:48:59;;;;;;;;;;;;;;;11.47;48.62;101902.03;4977525;28;99221;-79
2021/10/11 01:51:26;;;;;;;;;;;;;;;11.59;48.68;101905.31;4967932;28;99397;-79
2021/10/11 01:53:52;;;;;;;;;;;;;;;11.99;47.78;101904.44;4957538;28;96825;-79
2021/10/11 01:56:20;;;;;;;;;;;;;;;11.98;47.80;101900.06;4956747;28;96814;-79
2021/10/11 01:58:46;;;;;;;;;;;;;;;12.01;47.30;101900.00;4955647;28;97714;-79
2021/10/11 02:01:12;;;;;;;;;;;;;;;12.02;46.57;101883.16;4957447;28;98799;-79
2021/10/11 02:03:38;;;;;;;;;;;;;;;11.89;46.71;101874.63;4952182;28;97944;-79
2021/10/11 02:06:05;;;;;;;;;;;;;;;11.92;46.75;101869.28;4968575;28;96801;-78
2021/10/11 02:08:31;;;;;;;;;;;;;;;11.95;46.37;101863.03;4978152;28;98583;-79
2021/10/11 02:10:57;;;;;;;;;;;;;;;11.78;47.25;101865.22;4967819;28;98854;-78
2021/10/11 02:13:25;;;;;;;;;;;;;;;11.96;46.54;101862.13;4956596;28;97016;-78
2021/10/11 02:15:51;;;;;;;;;;;;;;;11.91;46.84;101858.72;4976579;28;96839;-79
2021/10/11 02:18:18;;;;;;;;;;;;;;;11.80;47.08;101852.81;4974473;28;98024;-78
2021/10/11 02:20:44;;;;;;;;;;;;;;;11.90;46.98;101854.31;4976139;28;98935;-78
2021/10/11 02:23:10;;;;;;;;;;;;;;;12.14;46.33;101853.72;4953365;28;97164;-79
2021/10/11 02:25:36;;;;;;;;;;;;;;;12.16;46.10;101851.94;4956827;28;96842;-78
2021/10/11 02:28:03;;;;;;;;;;;;;;;12.34;45.14;101851.47;4955047;28;99378;-79
2021/10/11 02:30:31;;;;;;;;;;;;;;;12.32;45.44;101845.34;4955602;28;98902;-79
2021/10/11 02:32:57;;;;;;;;;;;;;;;12.62;44.37;101848.09;4955102;28;96752;-78
2021/10/11 02:35:24;;;;;;;;;;;;;;;12.47;44.48;101841.41;4956828;28;96913;-79
2021/10/11 02:37:50;;;;;;;;;;;;;;;12.44;44.54;101841.50;4955889;28;99019;-80
2021/10/11 02:40:17;;;;;;;;;;;;;;;12.50;44.54;101848.44;4972221;28;98873;-78
2021/10/11 02:42:43;;;;;;;;;;;;;;;12.33;45.24;101848.88;4962235;28;96827;-79
2021/10/11 02:45:10;;;;;;;;;;;;;;;12.51;44.69;101842.22;4957512;28;97059;-79
2021/10/11 02:47:38;;;;;;;;;;;;;;;12.65;44.11;101840.06;4956225;28;99026;-79
2021/10/11 02:50:05;;;;;;;;;;;;;;;12.70;44.00;101839.03;4957059;28;97869;-79
2021/10/11 02:52:33;;;;;;;;;;;;;;;12.73;43.88;101838.09;4958097;28;96732;-78
2021/10/11 02:54:59;;;;;;;;;;;;;;;12.80;43.86;101846.75;4976020;28;97014;-80
2021/10/11 02:57:25;;;;;;;;;;;;;;;12.73;44.12;101840.75;4971099;28;99243;-80
2021/10/11 02:59:52;;;;;;;;;;;;;;;12.65;44.51;101840.06;4976364;28;98775;-80
2021/10/11 03:02:18;;;;;;;;;;;;;;;12.58;44.58;101836.72;4972510;28;97186;-78
2021/10/11 03:04:47;;;;;;;;;;;;;;;12.54;45.17;101837.69;4976581;28;96833;-78
2021/10/11 03:07:13;;;;;;;;;;;;;;;12.33;46.17;101831.19;4975793;28;98948;-80
2021/10/11 03:09:40;;;;;;;;;;;;;;;12.47;45.88;101829.97;4975956;28;98792;-79
2021/10/11 03:12:06;;;;;;;;;;;;;;;12.38;46.53;101825.75;4973750;28;96805;-79
2021/10/11 03:14:33;;;;;;;;;;;;;;;12.46;46.69;101820.28;4976239;28;96846;-78
2021/10/11 03:16:59;;;;;;;;;;;;;;;12.40;46.91;101818.66;4965631;28;99377;-79
2021/10/11 03:19:25;;;;;;;;;;;;;;;12.38;47.49;101813.38;4971426;28;98817;-80
2021/10/11 03:21:53;;;;;;;;;;;;;;;12.21;47.94;101818.22;4972359;28;96760;-78
2021/10/11 03:24:19;;;;;;;;;;;;;;;12.34;47.08;101806.41;4954961;28;97108;-79
2021/10/11 03:26:45;;;;;;;;;;;;;;;12.44;46.23;101806.19;4974092;28;99170;-79
2021/10/11 03:29:11;;;;;;;;;;;;;;;12.28;46.18;101803.91;4957550;28;99041;-79
2021/10/11 03:31:38;;;;;;;;;;;;;;;12.43;45.56;101792.03;4953314;28;96945;-78
2021/10/11 03:34:06;;;;;;;;;;;;;;;12.47;45.66;101793.69;4954653;28;97016;-78
2021/10/11 03:36:32;;;;;;;;;;;;;;;12.59;45.31;101796.03;4953402;28;98821;-78
2021/10/11 03:39:00;;;;;;;;;;;;;;;12.69;45.24;101799.28;4969079;28;99442;-79
2021/10/11 03:41:26;;;;;;;;;;;;;;;12.71;44.83;101789.53;4969150;28;97198;-78
2021/10/11 03:43:52;;;;;;;;;;;;;;;12.72;44.98;101791.28;4935180;28;97536;-79
2021/10/11 03:46:19;;;;;;;;;;;;;;;12.65;45.26;101797.66;4935632;28;98983;-79
2021/10/11 03:48:45;;;;;;;;;;;;;;;12.72;45.05;101797.44;4954817;28;98833;-79
2021/10/11 03:51:11;;;;;;;;;;;;;;;12.70;45.02;101793.09;4952573;28;98679;-78
2021/10/11 03:53:38;;;;;;;;;;;;;;;12.73;44.98;101793.00;4975599;28;96845;-79
2021/10/11 03:56:06;;;;;;;;;;;;;;;12.71;45.01;101790.41;4972689;28;99248;-78
2021/10/11 03:58:32;;;;;;;;;;;;;;;12.66;45.14;101789.66;4979433;28;101951;-79
2021/10/11 04:00:58;;;;;;;;;;;;;;;12.69;45.21;101800.16;4971962;28;97953;-78
2021/10/11 04:03:24;;;;;;;;;;;;;;;12.66;45.16;101794.09;4976640;28;96839;-79
2021/10/11 04:05:51;;;;;;;;;;;;;;;12.57;45.56;101797.84;4958468;28;99131;-78
2021/10/11 04:08:19;;;;;;;;;;;;;;;12.62;45.51;101797.72;4954494;28;100891;-78
2021/10/11 04:10:52;;;;;;;;;;;;;;;12.60;45.63;101802.22;4953528;28;96845;-79
2021/10/11 04:13:21;;;;;;;;;;;;;;;12.56;45.74;101792.59;4939698;28;97603;-78
2021/10/11 04:15:48;;;;;;;;;;;;;;;12.54;45.76;101795.28;4950563;28;99167;-79
2021/10/11 04:18:14;;;;;;;;;;;;;;;12.55;45.78;101797.00;4955783;28;99277;-80
2021/10/11 04:20:40;;;;;;;;;;;;;;;12.61;45.74;101795.97;4955434;28;96967;-80
2021/10/11 04:23:07;;;;;;;;;;;;;;;12.67;45.50;101794.03;4956106;28;97049;-80
2021/10/11 04:25:33;;;;;;;;;;;;;;;12.66;45.58;101792.31;4958279;28;99326;-79
2021/10/11 04:27:59;;;;;;;;;;;;;;;12.64;45.81;101790.59;4958143;28;98806;-79
2021/10/11 04:30:27;;;;;;;;;;;;;;;12.59;45.80;101801.34;4953027;28;96819;-78
2021/10/11 04:32:53;;;;;;;;;;;;;;;12.72;45.73;101800.09;4966662;28;97099;-79
2021/10/11 04:35:21;;;;;;;;;;;;;;;12.47;46.30;101790.19;4972012;28;98848;-80
2021/10/11 04:37:48;;;;;;;;;;;;;;;12.61;46.26;101785.38;4973379;28;99567;-79
2021/10/11 04:40:14;;;;;;;;;;;;;;;12.60;46.06;101781.00;4971452;28;96804;-79
2021/10/11 04:42:40;;;;;;;;;;;;;;;12.59;46.22;101788.09;4962039;28;96809;-79
2021/10/11 04:45:07;;;;;;;;;;;;;;;12.62;46.31;101781.81;4952872;28;97697;-79
2021/10/11 04:47:34;;;;;;;;;;;;;;;12.60;46.47;101778.34;4953677;28;98890;-77
2021/10/11 04:50:01;;;;;;;;;;;;;;;12.74;46.05;101776.16;4951755;28;97246;-79
2021/10/11 04:52:27;;;;;;;;;;;;;;;12.68;46.10;101776.34;4963158;28;98475;-79
2021/10/11 04:54:53;;;;;;;;;;;;;;;12.78;45.89;101777.84;4967784;28;101823;-79
2021/10/11 04:57:19;;;;;;;;;;;;;;;12.80;46.05;101775.16;4972946;28;99215;-79
2021/10/11 04:59:46;;;;;;;;;;;;;;;12.60;46.45;101778.34;4960682;28;96799;-80
2021/10/11 05:02:12;;;;;;;;;;;;;;;12.59;46.67;101777.47;4963855;28;96976;-79
2021/10/11 05:04:40;;;;;;;;;;;;;;;12.70;46.41;101769.22;4971672;28;99735;-79
2021/10/11 05:07:06;;;;;;;;;;;;;;;12.62;46.50;101761.47;4973461;28;101265;-79
2021/10/11 05:09:32;;;;;;;;;;;;;;;12.61;46.73;101764.16;4971681;28;97025;-78
2021/10/11 05:11:59;;;;;;;;;;;;;;;12.59;46.79;101761.56;4971889;28;97399;-79
2021/10/11 05:14:25;;;;;;;;;;;;;;;12.55;47.06;101759.91;4954805;28;99481;-79
2021/10/11 05:16:53;;;;;;;;;;;;;;;12.68;46.81;101757.78;4946198;28;99181;-78
2021/10/11 05:19:24;;;;;;;;;;;;;;;12.76;46.69;101771.69;4973169;28;97271;-79
2021/10/11 05:21:52;;;;;;;;;;;;;;;12.68;46.82;101761.28;4970939;28;96739;-79
2021/10/11 05:24:18;;;;;;;;;;;;;;;12.76;46.72;101763.72;4972341;28;98346;-79
2021/10/11 05:26:44;;;;;;;;;;;;;;;12.87;46.54;101772.25;4954812;28;99124;-79
2021/10/11 05:29:11;;;;;;;;;;;;;;;12.82;46.65;101768.00;4953421;28;96984;-79
2021/10/11 05:31:37;;;;;;;;;;;;;;;12.77;46.80;101765.47;4959268;28;96893;-79
2021/10/11 05:34:04;;;;;;;;;;;;;;;12.90;46.54;101766.88;4975742;28;97809;-78
2021/10/11 05:36:31;;;;;;;;;;;;;;;12.84;46.74;101755.56;4974565;28;99185;-78
2021/10/11 05:38:58;;;;;;;;;;;;;;;12.90;46.80;101758.03;4978640;28;96718;-78
2021/10/11 05:41:25;;;;;;;;;;;;;;;12.79;47.10;101763.66;4974731;28;97044;-79
2021/10/11 05:43:51;;;;;;;;;;;;;;;12.89;46.88;101767.78;4958748;28;101383;-79
2021/10/11 05:46:17;;;;;;;;;;;;;;;12.86;47.09;101761.72;4957783;28;98867;-78
2021/10/11 05:48:43;;;;;;;;;;;;;;;12.90;47.15;101763.34;4962190;28;97309;-79
2021/10/11 05:51:10;;;;;;;;;;;;;;;13.02;46.77;101765.63;4956717;28;97896;-79
2021/10/11 05:53:36;;;;;;;;;;;;;;;13.00;46.91;101762.16;4956630;28;99207;-78
2021/10/11 05:56:04;;;;;;;;;;;;;;;12.98;47.02;101761.34;4955174;28;99079;-78
2021/10/11 05:58:30;;;;;;;;;;;;;;;13.00;47.06;101763.03;4967067;28;98590;-81
2021/10/11 06:00:57;;;;;;;;;;;;;;;12.76;47.70;101769.03;4966968;28;97269;-80
2021/10/11 06:03:23;;;;;;;;;;;;;;;13.07;47.29;101763.72;4960251;28;99324;-80
2021/10/11 06:05:49;;;;;;;;;;;;;;;13.14;47.05;101766.16;4960100;28;98977;-79
2021/10/11 06:08:15;;;;;;;;;;;;;;;13.11;47.24;101771.56;4959524;28;96707;-79
2021/10/11 06:10:42;;;;;;;;;;;;;;;13.22;47.21;101759.75;4962158;28;96807;-79
2021/10/11 06:13:09;;;;;;;;;;;;;;;13.06;47.35;101757.53;4967418;28;100041;-77
2021/10/11 06:15:36;;;;;;;;;;;;;;;13.21;47.37;101752.72;4968642;28;97761;-80
2021/10/11 06:18:02;;;;;;;;;;;;;;;13.27;47.13;101756.06;4966628;28;96712;-78
2021/10/11 06:20:28;;;;;;;;;;;;;;;13.15;47.48;101765.25;4959675;28;97266;-78
2021/10/11 06:22:55;;;;;;;;;;;;;;;13.18;47.49;101769.63;4963265;28;99013;-79
2021/10/11 06:25:22;;;;;;;;;;;;;;;13.18;47.71;101769.63;4965812;28;98756;-79
2021/10/11 06:27:48;;;;;;;;;;;;;;;13.31;47.52;101772.78;4974025;28;97320;-79
2021/10/11 06:30:16;;;;;;;;;;;;;;;13.29;47.61;101766.63;4964656;28;97208;-78
2021/10/11 06:32:42;;;;;;;;;;;;;;;13.34;47.67;101765.56;4963060;28;101716;-79
2021/10/11 06:35:09;;;;;;;;;;;;;;;13.41;47.62;101768.91;4966252;28;98246;-80
2021/10/11 06:37:35;;;;;;;;;;;;;;;13.33;47.88;101765.59;4963888;28;98077;-79
2021/10/11 06:40:01;;;;;;;;;;;;;;;13.62;47.40;101770.88;4955918;28;99203;-81
2021/10/11 06:42:29;;;;;;;;;;;;;;;13.67;47.31;101782.22;4963876;28;96952;-79
2021/10/11 06:44:56;;;;;;;;;;;;;;;13.60;47.22;101780.69;4958043;28;98213;-78
2021/10/11 06:47:24;;;;;;;;;;;;;;;13.53;47.72;101769.38;4966784;28;97154;-80
2021/10/11 06:49:50;;;;;;;;;;;;;;;13.62;47.55;101778.84;4964102;28;96880;-81
2021/10/11 06:52:17;;;;;;;;;;;;;;;13.65;47.69;101783.22;4960505;28;99113;-79
2021/10/11 06:54:43;;;;;;;;;;;;;;;13.59;47.81;101784.25;4957639;28;98014;-78
2021/10/11 06:57:09;;;;;;;;;;;;;;;13.44;48.30;101796.25;4958361;28;97041;-79
2021/10/11 06:59:36;;;;;;;;;;;;;;;13.67;47.87;101784.88;4956797;28;97764;-78
2021/10/11 07:02:02;;;;;;;;;;;;;;;13.71;48.03;101791.00;4959299;28;99025;-79
2021/10/11 07:04:31;;;;;;;;;;;;;;;13.74;47.84;101796.19;4966444;28;98139;-79
2021/10/11 07:06:57;;;;;;;;;;;;;;;13.80;47.96;101795.97;4961932;28;97227;-81
2021/10/11 07:09:24;;;;;;;;;;;;;;;13.80;48.08;101795.97;4959995;28;96948;-80
2021/10/11 07:11:52;;;;;;;;;;;;;;;13.70;48.10;101797.22;4969512;28;98792;-81
2021/10/11 07:14:20;;;;;;;;;;;;;;;13.84;48.04;101800.31;4967058;28;99202;-79
2021/10/11 07:16:46;;;;;;;;;;;;;;;13.84;48.41;101795.00;4969292;28;97886;-80
2021/10/11 07:19:19;;;;;;;;;;;;;;;14.17;47.54;101798.31;4965709;28;96903;-80
2021/10/11 07:21:47;;;;;;;;;;;;;;;14.12;47.89;101801.09;4976828;28;99248;-79
2021/10/11 07:24:15;;;;;;;;;;;;;;;14.27;47.64;101797.94;4961455;28;98838;-80
2021/10/11 07:26:42;;;;;;;;;;;;;;;14.36;47.37;101799.44;4954256;28;97260;-80
2021/10/11 07:29:09;;;;;;;;;;;;;;;14.27;47.72;101803.25;4974645;28;97039;-80
2021/10/11 07:31:35;;;;;;;;;;;;;;;14.32;47.73;101805.75;4968633;28;99410;-80
2021/10/11 07:34:07;;;;;;;;;;;;;;;14.03;48.63;101801.44;4976907;28;96869;-80
2021/10/11 07:36:34;;;;;;;;;;;;;;;14.20;48.50;101803.50;4974098;28;96397;-79
2021/10/11 07:39:18;;;;;;;;;;;;;;;13.74;49.66;101796.19;4991184;28;96635;-79
2021/10/11 07:41:46;;;;;;;;;;;;;;;14.11;48.83;101801.19;4980647;28;97743;-78
2021/10/11 07:44:13;;;;;;;;;;;;;;;14.19;48.57;101801.78;4972676;28;100281;-78
2021/10/11 07:46:39;;;;;;;;;;;;;;;13.86;49.65;101806.41;4977210;28;96216;-79
2021/10/11 07:49:06;;;;;;;;;;;;;;;14.27;48.51;101805.91;4973974;28;96792;-78
2021/10/11 07:51:33;;;;;;;;;;;;;;;13.87;49.92;101810.81;4962344;28;99211;-79
2021/10/11 07:54:00;;;;;;;;;;;;;;;13.95;49.56;101807.00;4933242;28;97880;-79
2021/10/11 07:56:41;;;;;;;;;;;;;;;14.24;49.13;101805.16;4948862;28;97652;-79
2021/10/11 07:59:10;;;;;;;;;;;;;;;14.31;49.03;101811.97;4951223;28;96832;-80
2021/10/11 08:01:47;;;;;;;;;;;;;;;14.69;48.25;101803.59;4948468;28;99315;-78
2021/10/11 08:06:54;;;;;;;;;;;;;;;13.69;51.06;101806.97;4935469;28;96764;-80
2021/10/11 08:09:21;;;;;;;;;;;;;;;13.54;52.56;101799.47;4948916;28;97224;-81
2021/10/11 08:11:48;;;;;;;;;;;;;;;14.32;50.67;101797.78;4954127;28;101565;-78
2021/10/11 08:14:22;;;;;;;;;;;;;;;14.22;50.98;101799.91;4942417;28;100453;-79
2021/10/11 08:16:48;;;;;;;;;;;;;;;13.83;52.51;101804.75;4949597;28;96783;-79
2021/10/11 08:19:26;;;;;;;;;;;;;;;14.34;51.38;101802.13;4947275;28;96771;-78
2021/10/11 08:21:53;;;;;;;;;;;;;;;14.47;51.14;101802.59;4943292;28;99054;-78
2021/10/11 08:24:19;;;;;;;;;;;;;;;14.61;50.70;101805.66;4942215;28;98843;-79
2021/10/11 08:26:45;;;;;;;;;;;;;;;14.58;50.99;101816.38;4947148;28;96805;-80
2021/10/11 08:29:12;;;;;;;;;;;;;;;14.60;51.43;101814.56;4947470;28;96829;-79
2021/10/11 08:31:44;;;;;;;;;;;;;;;14.23;52.28;101808.75;4948215;28;97005;-80
2021/10/11 08:34:13;;;;;;;;;;;;;;;14.73;50.91;101802.56;4948315;28;97293;-81
2021/10/11 08:36:40;;;;;;;;;;;;;;;14.77;50.84;101817.47;4949349;28;96665;-80
2021/10/11 08:39:07;;;;;;;;;;;;;;;15.22;50.56;101818.53;4936866;28;97209;-80
2021/10/11 08:41:34;;;;;;;;;;;;;;;14.81;51.09;101820.03;4941793;28;102045;-80
2021/10/11 08:44:01;;;;;;;;;;;;;;;14.51;51.77;101825.50;4943406;28;101087;-80
2021/10/11 08:46:27;;;;;;;;;;;;;;;14.56;52.11;101823.56;4919717;28;96883;-81
2021/10/11 08:48:55;;;;;;;;;;;;;;;14.61;51.85;101821.63;4945317;28;96972;-80
2021/10/11 08:51:22;;;;;;;;;;;;;;;14.84;51.64;101822.56;4944407;28;100297;-82
2021/10/11 08:53:49;;;;;;;;;;;;;;;15.32;50.54;101825.22;4942408;28;99553;-80
2021/10/11 08:56:16;;;;;;;;;;;;;;;15.32;50.35;101826.09;4943516;28;97660;-80
2021/10/11 08:58:42;;;;;;;;;;;;;;;15.48;49.79;101827.25;4942535;28;97523;-80
2021/10/11 09:01:09;;;;;;;;;;;;;;;15.14;50.81;101832.97;4934463;28;98249;-80
2021/10/11 09:03:37;;;;;;;;;;;;;;;15.19;51.51;101824.81;4925834;28;98014;-85
2021/10/11 09:06:07;;;;;;;;;;;;;;;15.09;51.80;101821.66;4947433;28;96723;-81
2021/10/11 09:08:33;;;;;;;;;;;;;;;15.31;51.42;101827.00;4942924;28;97473;-81
2021/10/11 09:11:00;;;;;;;;;;;;;;;15.50;50.83;101836.03;4940433;28;99410;-81
2021/10/11 09:13:28;;;;;;;;;;;;;;;14.86;52.74;101829.59;4936884;28;98928;-82
2021/10/11 09:16:02;;;;;;;;;;;;;;;14.88;52.42;101826.88;4942086;28;96871;-80
2021/10/11 09:18:30;;;;;;;;;;;;;;;15.38;51.59;101825.84;4950255;28;96828;-80
2021/10/11 09:20:57;;;;;;;;;;;;;;;15.47;51.46;101824.63;4949093;28;101666;-81
2021/10/11 09:23:29;;;;;;;;;;;;;;;15.60;50.75;101822.41;4950909;28;97128;-81
2021/10/11 09:25:56;;;;;;;;;;;;;;;15.60;51.34;101820.59;4950864;28;97752;-81
2021/10/11 09:28:25;;;;;;;;;;;;;;;16.40;49.63;101824.41;4947541;28;96936;-80
2021/10/11 09:30:52;;;;;;;;;;;;;;;16.92;48.19;101817.69;4930773;28;98686;-81
2021/10/11 09:33:27;;;;;;;;;;;;;;;16.57;48.67;101827.22;4936998;28;96932;-81
2021/10/11 09:35:54;;;;;;;;;;;;;;;16.71;48.64;101827.50;4934877;28;96895;-81
2021/10/11 09:38:22;;;;;;;;;;;;;;;16.22;50.10;101822.50;4956257;28;96854;-81
2021/10/11 09:40:50;;;;;;;;;;;;;;;16.77;48.47;101821.03;4942845;28;97930;-83
2021/10/11 09:43:19;;;;;;;;;;;;;;;15.97;51.10;101822.66;4950662;28;97617;-82
2021/10/11 09:45:45;;;;;;;;;;;;;;;16.79;49.25;101823.66;4953660;28;97465;-83
2021/10/11 09:48:12;;;;;;;;;;;;;;;16.17;50.62;101830.69;4955756;28;96814;-82
2021/10/11 09:50:39;;;;;;;;;;;;;;;16.72;49.47;101825.72;4953251;28;97640;-81
2021/10/11 09:53:06;;;;;;;;;;;;;;;15.50;52.34;101816.50;4965034;28;99370;-82
2021/10/11 09:55:34;;;;;;;;;;;;;;;16.26;51.11;101817.00;4962235;28;97035;-81
2021/10/11 09:58:03;;;;;;;;;;;;;;;15.61;52.80;101814.34;4963529;28;96845;-82
2021/10/11 10:00:29;;;;;;;;;;;;;;;16.61;50.48;101812.81;4961809;28;100317;-81
2021/10/11 10:03:00;;;;;;;;;;;;;;;16.74;49.79;101811.34;4963845;28;98536;-81
2021/10/11 10:05:29;;;;;;;;;;;;;;;16.62;50.03;101816.38;4965422;28;96708;-81
2021/10/11 10:07:58;;;;;;;;;;;;;;;16.07;51.83;101812.50;4968012;28;97000;-81
2021/10/11 10:10:25;;;;;;;;;;;;;;;15.65;53.28;101817.75;4973782;28;97798;-80
2021/10/11 10:12:52;;;;;;;;;;;;;;;16.22;52.10;101815.38;4967027;28;98160;-81
2021/10/11 10:15:36;;;;;;;;;;;;;;;16.17;52.40;101814.69;4967720;28;96776;-81
2021/10/11 10:18:06;;;;;;;;;;;;;;;17.03;49.99;101807.38;4973917;28;96915;-80
2021/10/11 10:23:23;;;;;;;;;;;;;;;17.41;48.61;101813.63;4965634;28;98789;-80
2021/10/11 10:25:49;;;;;;;;;;;;;;;17.47;48.31;101815.13;4975915;28;96847;-80
2021/10/11 10:28:16;;;;;;;;;;;;;;;17.51;48.34;101800.69;4965488;28;97036;-80
2021/10/11 10:30:54;;;;;;;;;;;;;;;17.65;48.43;101800.94;4967915;28;98338;-80
2021/10/11 10:33:22;;;;;;;;;;;;;;;17.75;47.92;101804.91;4968279;28;99466;-79
2021/10/11 10:38:31;;;;;;;;;;;;;;;17.56;48.36;101785.31;4974939;28;96856;-82
2021/10/11 10:40:58;;;;;;;;;;;;;;;17.64;47.80;101785.84;4976762;28;99437;-80
2021/10/11 10:43:25;;;;;;;;;;;;;;;16.59;50.42;101787.13;4961979;28;97772;-80
2021/10/11 10:45:54;;;;;;;;;;;;;;;16.35;51.10;101781.91;4963604;28;98804;-79
2021/10/11 10:48:21;;;;;;;;;;;;;;;17.17;49.29;101780.03;4945010;28;97723;-80
2021/10/11 10:50:48;;;;;;;;;;;;;;;17.52;48.52;101784.56;4958945;28;97978;-80
2021/10/11 10:53:15;;;;;;;;;;;;;;;17.22;49.16;101779.81;4960071;28;99184;-80
2021/10/11 10:55:42;;;;;;;;;;;;;;;17.56;48.53;101771.06;4969781;28;96814;-79
2021/10/11 10:58:10;;;;;;;;;;;;;;;16.96;50.06;101771.22;4963551;28;96923;-79
2021/10/11 11:00:37;;;;;;;;;;;;;;;17.27;49.52;101769.78;4964182;28;99253;-79
2021/10/11 11:03:05;;;;;;;;;;;;;;;17.59;48.56;101771.78;4961388;28;99350;-80
2021/10/11 11:05:31;;;;;;;;;;;;;;;17.95;47.67;101761.13;4963525;28;96768;-78
2021/10/11 11:07:58;;;;;;;;;;;;;;;17.84;47.86;101761.69;4962103;28;97292;-81
2021/10/11 11:10:25;;;;;;;;;;;;;;;17.21;48.97;101754.91;4975252;28;101555;-81
2021/10/11 11:12:53;;;;;;;;;;;;;;;17.56;48.52;101763.94;4959389;28;99013;-79
2021/10/11 11:15:24;;;;;;;;;;;;;;;17.93;47.50;101760.34;4962718;28;96849;-80
2021/10/11 11:17:50;;;;;;;;;;;;;;;18.10;48.03;101762.19;4964783;28;97103;-80
2021/10/11 11:20:20;;;;;;;;;;;;;;;18.48;47.22;101758.38;4965101;28;99834;-80
2021/10/11 11:22:47;;;;;;;;;;;;;;;18.31;47.62;101769.94;4970825;28;97832;-79
2021/10/11 11:25:13;;;;;;;;;;;;;;;18.15;47.86;101763.66;4963393;28;97626;-80
2021/10/11 11:27:41;;;;;;;;;;;;;;;18.86;46.23;101763.53;4960755;28;96985;-77
2021/10/11 11:30:08;;;;;;;;;;;;;;;18.16;47.10;101754.69;4958965;28;99551;-80
2021/10/11 11:32:38;;;;;;;;;;;;;;;18.09;47.88;101760.44;4959777;28;98160;-81
2021/10/11 11:35:05;;;;;;;;;;;;;;;18.42;47.11;101753.34;4959069;28;97204;-79
2021/10/11 11:37:34;;;;;;;;;;;;;;;18.28;47.08;101761.22;4966610;28;96821;-80
2021/10/11 11:40:05;;;;;;;;;;;;;;;18.04;47.45;101759.81;4967030;28;98161;-80
2021/10/11 11:42:34;;;;;;;;;;;;;;;18.31;46.68;101753.91;4970922;28;100608;-80
2021/10/11 11:45:01;;;;;;;;;;;;;;;18.28;47.01;101758.56;4963448;28;98503;-80
2021/10/11 11:47:41;;;;;;;;;;;;;;;17.71;48.78;101749.00;4964930;28;96868;-80
2021/10/11 11:50:17;;;;;;;;;;;;;;;18.20;47.54;101755.41;4971295;28;97604;-81
2021/10/11 11:52:48;;;;;;;;;;;;;;;18.36;47.19;101751.00;4971589;28;98733;-80
2021/10/11 11:55:14;;;;;;;;;;;;;;;19.31;45.22;101736.03;4966681;28;96002;-80
2021/10/11 11:57:42;;;;;;;;;;;;;;;19.24;44.61;101743.53;4979486;28;96568;-80
2021/10/11 12:00:09;;;;;;;;;;;;;;;19.36;44.94;101740.19;4987649;28;99591;-80
2021/10/11 12:02:37;;;;;;;;;;;;;;;19.02;45.38;101746.56;4963537;28;97284;-80
2021/10/11 12:05:04;;;;;;;;;;;;;;;19.45;44.40;101736.97;4974740;28;96866;-81
2021/10/11 12:07:33;;;;;;;;;;;;;;;19.48;44.18;101741.34;4963223;28;97673;-80
2021/10/11 12:10:05;;;;;;;;;;;;;;;19.84;43.39;101733.84;4967352;28;97699;-80
2021/10/11 12:15:20;;;;;;;;;;;;;;;19.03;45.11;101728.69;4959788;28;98249;-81
2021/10/11 12:17:47;;;;;;;;;;;;;;;19.04;44.57;101725.91;4955202;28;96876;-79
2021/10/11 12:20:13;;;;;;;;;;;;;;;18.32;45.70;101734.22;4961154;28;96949;-81
2021/10/11 12:22:42;;;;;;;;;;;;;;;17.89;47.18;101734.69;4959698;28;101659;-79
2021/10/11 12:25:12;;;;;;;;;;;;;;;18.57;45.74;101728.50;4959132;28;97288;-83
2021/10/11 12:27:39;;;;;;;;;;;;;;;18.37;45.98;101736.69;4959674;28;96753;-78
2021/10/11 12:30:14;;;;;;;;;;;;;;;18.23;46.37;101725.84;4957939;28;100688;-79
2021/10/11 12:32:41;;;;;;;;;;;;;;;18.53;45.70;101732.25;4961496;28;97726;-79
2021/10/11 12:35:08;;;;;;;;;;;;;;;19.04;44.79;101730.38;4964913;28;97508;-80
2021/10/11 12:37:39;;;;;;;;;;;;;;;18.53;45.74;101734.91;4950117;28;96930;-79
2021/10/11 12:40:07;;;;;;;;;;;;;;;18.83;45.93;101737.81;4960224;28;99549;-79
2021/10/11 12:42:45;;;;;;;;;;;;;;;18.50;46.15;101739.56;4963186;28;98066;-79
2021/10/11 12:45:14;;;;;;;;;;;;;;;19.48;43.96;101731.50;4964743;28;96811;-78
2021/10/11 12:47:42;;;;;;;;;;;;;;;19.36;43.79;101733.97;4949810;28;96788;-80